Time;durP1;ratioP1;P1;durP2;ratioP2;P2;SDS_P1;SDS_P2;PMS_P1;PMS_P2;Temp;Humidity;BMP_temperature;BMP_pressure;BME280_temperature;BME280_humidity;BME280_pressure;Samples;Min_cycle;Max_cycle;Signal;HPM_P1;HPM_P2
2022/07/29 00:01:28;;;;;;;6.07;1.83;;;;;;;17.47;56.98;101394.16;10345539;28;20068;-73
2022/07/29 00:06:28;;;;;;;2.67;1.52;;;;;;;17.45;57.72;101387.91;10390406;28;20118;-74
2022/07/29 00:11:29;;;;;;;8.85;3.67;;;;;;;17.30;58.64;101384.00;10370527;28;20470;-74
2022/07/29 00:16:29;;;;;;;6.78;2.17;;;;;;;17.19;59.42;101377.50;10373661;28;20034;-74
2022/07/29 00:21:30;;;;;;;3.70;1.60;;;;;;;17.47;57.46;101365.03;10370696;28;20386;-74
2022/07/29 00:26:32;;;;;;;4.38;1.40;;;;;;;17.49;56.76;101363.34;10359725;28;20042;-74
2022/07/29 00:31:32;;;;;;;3.45;1.67;;;;;;;17.41;57.12;101354.28;10371985;28;20061;-74
2022/07/29 00:36:33;;;;;;;6.45;1.83;;;;;;;17.29;57.59;101362.81;10331873;28;20445;-75
2022/07/29 00:41:33;;;;;;;4.38;1.50;;;;;;;17.05;59.29;101368.28;10360835;28;20049;-73
2022/07/29 00:46:34;;;;;;;3.58;1.52;;;;;;;16.91;61.16;101394.28;10355200;28;20512;-72
2022/07/29 00:51:36;;;;;;;3.80;1.45;;;;;;;16.87;60.69;101449.72;10365535;28;20120;-73
2022/07/29 00:56:36;;;;;;;;;;;;;;;16.84;62.43;101454.00;10372223;28;20121;-73
2022/07/29 01:01:37;;;;;;;7.53;2.20;;;;;;;16.72;63.20;101443.94;10369986;28;19927;-73
2022/07/29 01:06:37;;;;;;;16.77;3.95;;;;;;;16.61;67.79;101438.31;10365159;28;20707;-74
2022/07/29 01:11:38;;;;;;;9.45;4.03;;;;;;;15.94;75.51;101440.50;10361606;28;20491;-77
2022/07/29 01:16:51;;;;;;;9.68;3.40;;;;;;;15.24;79.55;101432.69;10387362;28;20103;-76
2022/07/29 01:21:54;;;;;;;11.60;3.90;;;;;;;14.67;84.27;101358.50;10352573;28;20045;-77
2022/07/29 01:27:14;;;;;;;5.38;3.35;;;;;;;14.29;87.73;101380.69;10330733;28;20041;-76
2022/07/29 01:32:18;;;;;;;16.65;4.95;;;;;;;13.93;91.65;101385.38;10383748;28;20041;-74
2022/07/29 01:37:33;;;;;;;10.30;4.55;;;;;;;13.68;94.27;101387.81;10368752;28;20033;-74
2022/07/29 01:42:43;;;;;;;9.18;3.60;;;;;;;13.78;93.69;101377.72;10363190;28;20136;-74
2022/07/29 01:47:54;;;;;;;10.32;4.70;;;;;;;13.75;93.55;101380.22;10313295;28;20508;-73
2022/07/29 01:52:59;;;;;;;10.98;4.70;;;;;;;13.78;92.38;101368.97;10369577;28;20508;-73
2022/07/29 01:58:00;;;;;;;8.55;4.35;;;;;;;13.75;94.28;101340.78;10385134;28;20919;-73
2022/07/29 02:03:02;;;;;;;10.18;4.40;;;;;;;13.84;93.08;101328.84;10342836;28;20038;-73
2022/07/29 02:08:03;;;;;;;6.18;3.95;;;;;;;13.95;92.13;101332.81;10344904;28;20045;-73
2022/07/29 02:13:03;;;;;;;6.22;4.22;;;;;;;13.74;93.64;101338.09;10342461;28;20512;-73
2022/07/29 02:18:22;;;;;;;9.63;4.68;;;;;;;13.60;96.80;101337.50;10344090;28;20042;-73
2022/07/29 02:23:23;;;;;;;9.98;5.82;;;;;;;13.49;99.03;101330.03;10328625;28;20045;-74
2022/07/29 02:28:25;;;;;;;8.90;5.97;;;;;;;13.52;99.67;101321.41;10343974;28;20034;-74
2022/07/29 02:33:26;;;;;;;13.32;6.20;;;;;;;13.50;100.00;101312.56;10354087;28;20048;-73
2022/07/29 02:43:47;;;;;;;8.70;5.65;;;;;;;13.44;100.00;101317.53;10332256;28;20038;-73
2022/07/29 02:49:11;;;;;;;8.95;6.47;;;;;;;13.42;100.00;101301.69;10363090;28;20037;-73
2022/07/29 02:54:21;;;;;;;12.55;7.28;;;;;;;13.42;100.00;101312.19;10345947;28;20498;-74
2022/07/29 02:59:23;;;;;;;11.80;7.70;;;;;;;13.52;100.00;101329.28;10352101;28;20069;-74
2022/07/29 03:04:24;;;;;;;11.57;6.30;;;;;;;13.57;100.00;101350.50;10383775;28;20390;-74
2022/07/29 03:09:25;;;;;;;13.23;6.50;;;;;;;13.56;100.00;101340.81;10343266;28;20038;-75
2022/07/29 03:14:26;;;;;;;7.57;6.20;;;;;;;13.59;100.00;101346.22;10324379;28;20038;-75
2022/07/29 03:19:26;;;;;;;9.98;6.45;;;;;;;13.62;100.00;101368.31;10347335;28;20125;-74
2022/07/29 03:24:31;;;;;;;9.40;6.47;;;;;;;13.57;100.00;101368.91;10400507;28;20041;-74
2022/07/29 03:29:32;;;;;;;10.65;6.95;;;;;;;13.53;100.00;101367.00;10359133;28;20397;-75
2022/07/29 03:34:33;;;;;;;11.95;7.00;;;;;;;13.52;100.00;101345.06;10398424;28;20048;-75
2022/07/29 03:39:36;;;;;;;10.70;6.30;;;;;;;13.38;100.00;101349.69;10367925;28;20042;-75
2022/07/29 03:44:37;;;;;;;10.85;8.13;;;;;;;13.35;100.00;101336.41;10334286;28;20040;-75
2022/07/29 03:49:37;;;;;;;12.48;8.82;;;;;;;13.34;100.00;101331.97;10372605;28;20029;-75
2022/07/29 03:54:38;;;;;;;12.70;8.68;;;;;;;13.49;100.00;101343.19;10390332;28;20172;-75
2022/07/29 03:59:39;;;;;;;10.52;8.02;;;;;;;13.53;100.00;101351.22;10392971;28;20125;-75
2022/07/29 04:04:39;;;;;;;13.10;8.07;;;;;;;13.56;100.00;101341.75;10374767;28;20037;-75
2022/07/29 04:09:40;;;;;;;10.85;8.35;;;;;;;13.60;100.00;101350.63;10366768;28;20125;-75
2022/07/29 04:14:40;;;;;;;18.08;9.05;;;;;;;13.63;100.00;101345.50;10349075;28;20034;-75
2022/07/29 04:19:41;;;;;;;17.42;9.23;;;;;;;13.61;100.00;101357.69;10388024;28;20065;-76
2022/07/29 04:24:41;;;;;;;14.25;8.95;;;;;;;13.51;100.00;101349.41;10406404;28;20099;-76
2022/07/29 04:29:42;;;;;;;17.27;10.35;;;;;;;13.53;100.00;101331.09;10382990;28;20092;-75
2022/07/29 04:34:42;;;;;;;16.35;9.80;;;;;;;13.64;100.00;101334.16;10347878;28;20547;-75
2022/07/29 04:39:43;;;;;;;15.13;8.82;;;;;;;13.70;100.00;101354.56;10388572;28;20038;-75
2022/07/29 04:44:43;;;;;;;11.48;8.88;;;;;;;13.61;100.00;101341.91;10388170;28;20559;-75
2022/07/29 04:49:44;;;;;;;13.43;9.68;;;;;;;13.64;100.00;101342.97;10379937;28;20117;-75
2022/07/29 04:54:44;;;;;;;16.35;10.65;;;;;;;13.63;100.00;101345.50;10363562;28;20481;-75
2022/07/29 04:59:45;;;;;;;18.55;12.18;;;;;;;13.69;100.00;101351.03;10388023;28;20136;-75
2022/07/29 05:04:45;;;;;;;15.23;10.98;;;;;;;13.70;100.00;101350.19;10405137;28;20033;-77
2022/07/29 05:09:46;;;;;;;14.10;9.80;;;;;;;13.71;100.00;101352.00;10381514;28;21657;-75
2022/07/29 05:14:46;;;;;;;17.48;10.00;;;;;;;13.86;100.00;101348.22;10396889;28;20033;-75
2022/07/29 05:19:47;;;;;;;16.10;9.70;;;;;;;13.89;100.00;101340.44;10403075;28;20109;-75
2022/07/29 05:24:47;;;;;;;10.88;8.00;;;;;;;13.85;100.00;101362.22;10402638;28;20098;-76
2022/07/29 05:29:48;;;;;;;12.32;8.70;;;;;;;13.72;100.00;101356.44;10384043;28;20046;-75
2022/07/29 05:34:48;;;;;;;12.00;8.93;;;;;;;13.69;100.00;101345.78;10403422;28;20111;-75
2022/07/29 05:39:49;;;;;;;14.63;9.63;;;;;;;13.71;100.00;101359.88;10382937;28;20052;-75
2022/07/29 05:44:49;;;;;;;13.35;10.77;;;;;;;13.73;100.00;101352.06;10361396;28;20037;-75
2022/07/29 05:49:50;;;;;;;17.77;9.82;;;;;;;13.69;100.00;101348.41;10384057;28;20080;-75
2022/07/29 05:54:51;;;;;;;14.85;8.48;;;;;;;13.78;100.00;101348.78;10388179;28;20127;-75
2022/07/29 05:59:51;;;;;;;14.50;8.48;;;;;;;13.71;100.00;101345.84;10395061;28;20212;-75
2022/07/29 06:04:52;;;;;;;11.60;8.10;;;;;;;13.72;100.00;101332.75;10402532;28;20072;-75
2022/07/29 06:09:52;;;;;;;16.17;9.07;;;;;;;13.78;100.00;101348.78;10373287;28;20065;-75
2022/07/29 06:14:53;;;;;;;16.65;8.73;;;;;;;13.82;100.00;101347.22;10360712;28;20113;-74
2022/07/29 06:19:53;;;;;;;11.68;7.45;;;;;;;13.95;100.00;101360.03;10371845;28;20043;-75
2022/07/29 06:24:54;;;;;;;11.00;8.32;;;;;;;14.05;100.00;101350.78;10400583;28;20072;-74
2022/07/29 06:29:55;;;;;;;10.98;7.68;;;;;;;14.30;100.00;101358.78;10402078;28;20029;-75
2022/07/29 06:34:56;;;;;;;11.10;7.20;;;;;;;14.58;100.00;101376.56;10382388;28;20041;-76
2022/07/29 06:45:16;;;;;;;8.98;5.20;;;;;;;15.35;93.40;101412.00;10401469;28;20037;-75
2022/07/29 06:50:16;;;;;;;7.57;4.97;;;;;;;15.21;91.51;101424.69;10399952;28;20116;-74
2022/07/29 06:55:19;;;;;;;8.90;5.05;;;;;;;15.17;94.06;101425.41;10400584;28;20041;-74
2022/07/29 07:00:19;;;;;;;;;;;;;;;15.25;93.03;101431.88;10399736;28;20536;-75
2022/07/29 07:05:20;;;;;;;8.50;5.50;;;;;;;15.20;94.46;101436.06;10383648;28;19929;-75
2022/07/29 07:10:20;;;;;;;10.20;6.20;;;;;;;15.10;95.32;101438.34;10387460;28;20045;-74
2022/07/29 07:15:21;;;;;;;13.20;7.10;;;;;;;14.99;94.70;101439.69;10383792;28;20136;-74
2022/07/29 07:20:22;;;;;;;9.18;6.82;;;;;;;14.88;96.22;101438.34;10373373;28;20034;-75
2022/07/29 07:25:22;;;;;;;13.55;7.07;;;;;;;14.79;97.54;101444.16;10381479;28;20120;-74
2022/07/29 07:30:23;;;;;;;11.90;7.53;;;;;;;14.85;98.46;101441.75;10354234;28;20051;-75
2022/07/29 07:35:24;;;;;;;10.68;8.20;;;;;;;14.93;99.58;101450.88;10387578;28;20128;-76
2022/07/29 07:40:25;;;;;;;10.25;7.05;;;;;;;15.10;99.70;101448.91;10399023;28;20183;-74
2022/07/29 07:45:25;;;;;;;13.38;7.70;;;;;;;15.27;99.04;101438.97;10381519;28;20038;-74
2022/07/29 07:50:26;;;;;;;11.05;8.32;;;;;;;15.59;97.39;101446.28;10381609;28;20102;-75
2022/07/29 07:55:26;;;;;;;8.80;6.38;;;;;;;16.06;94.92;101445.31;10399585;28;20037;-75
2022/07/29 08:00:27;;;;;;;14.85;7.28;;;;;;;16.12;89.96;101438.47;10398997;28;20092;-74
2022/07/29 08:05:28;;;;;;;11.18;6.80;;;;;;;16.28;88.94;101439.91;10381174;28;20389;-74
2022/07/29 08:15:56;;;;;;;10.70;6.35;;;;;;;17.34;85.99;101448.47;10399855;28;20045;-74
2022/07/29 08:20:57;;;;;;;6.00;4.28;;;;;;;19.34;75.86;101448.16;10368520;28;20057;-75
2022/07/29 08:25:57;;;;;;;7.55;5.28;;;;;;;20.43;69.74;101441.31;10372034;28;20482;-75
2022/07/29 08:30:58;;;;;;;7.90;5.18;;;;;;;23.01;59.81;101447.66;10376807;28;20117;-74
2022/07/29 08:35:59;;;;;;;7.13;5.13;;;;;;;25.08;52.53;101456.84;10347789;28;20514;-75
2022/07/29 08:41:02;;;;;;;7.90;4.47;;;;;;;25.10;52.96;101464.91;10364922;28;20129;-75
2022/07/29 08:46:03;;;;;;;6.75;4.03;;;;;;;26.00;47.31;101459.97;10365010;28;20117;-75
2022/07/29 08:51:03;;;;;;;9.63;4.87;;;;;;;27.06;47.65;101446.50;10364655;28;20037;-75
2022/07/29 08:56:04;;;;;;;8.20;5.37;;;;;;;27.74;43.14;101452.78;10330607;28;20058;-76
2022/07/29 09:01:04;;;;;;;8.00;4.57;;;;;;;26.86;45.66;101452.09;10346895;28;20141;-76
2022/07/29 09:06:05;;;;;;;6.07;4.50;;;;;;;26.15;50.13;101445.59;10330291;28;20077;-76
2022/07/29 09:11:07;;;;;;;6.50;5.07;;;;;;;25.34;49.70;101450.50;10347042;28;20096;-76
2022/07/29 09:16:07;;;;;;;7.05;5.50;;;;;;;26.90;46.89;101453.84;10363168;28;20512;-76
2022/07/29 09:26:32;;;;;;;7.93;5.80;;;;;;;27.35;45.10;101460.47;10364140;28;20034;-75
2022/07/29 09:31:34;;;;;;;9.88;6.03;;;;;;;27.33;46.34;101462.28;10345508;28;20119;-75
2022/07/29 09:36:47;;;;;;;10.25;5.28;;;;;;;28.40;44.64;101450.00;10362011;28;20037;-75
2022/07/29 09:41:49;;;;;;;6.45;5.55;;;;;;;28.90;43.57;101455.34;10346518;28;20121;-75
2022/07/29 09:47:05;;;;;;;8.35;5.88;;;;;;;29.48;43.06;101448.81;10362339;28;20049;-76
2022/07/29 09:52:07;;;;;;;11.48;5.78;;;;;;;29.62;41.06;101453.88;10362332;28;20042;-75
2022/07/29 09:57:20;;;;;;;5.15;3.85;;;;;;;30.14;40.07;101447.25;10344379;28;20034;-75
2022/07/29 10:02:21;;;;;;;8.50;5.03;;;;;;;30.63;38.65;101448.75;10346117;28;20038;-75
2022/07/29 10:07:22;;;;;;;10.32;5.78;;;;;;;30.43;41.59;101452.84;10344628;28;20047;-75
2022/07/29 10:12:22;;;;;;;7.38;5.38;;;;;;;30.52;38.01;101447.19;10328943;28;20064;-76
2022/07/29 10:17:23;;;;;;;8.48;5.13;;;;;;;30.94;39.48;101454.16;10343696;28;20053;-76
2022/07/29 10:22:23;;;;;;;10.43;5.55;;;;;;;31.71;36.83;101444.69;10328224;28;20034;-75
2022/07/29 10:27:24;;;;;;;10.13;5.75;;;;;;;31.52;37.48;101436.28;10360391;28;20033;-76
2022/07/29 10:32:54;;;;;;;11.05;6.25;;;;;;;31.59;37.27;101437.84;10360686;28;20034;-76
2022/07/29 10:38:22;;;;;;;10.23;6.03;;;;;;;29.64;40.04;101442.16;10357337;28;20038;-76
2022/07/29 10:43:26;;;;;;;5.70;4.45;;;;;;;30.57;37.55;101428.16;10360556;28;20042;-76
2022/07/29 10:48:27;;;;;;;7.18;6.30;;;;;;;31.02;39.39;101433.22;10378515;28;20034;-76
2022/07/29 10:53:45;;;;;;;8.48;6.68;;;;;;;31.80;36.01;101438.13;10382545;28;20037;-75
2022/07/29 10:58:46;;;;;;;9.10;7.07;;;;;;;31.91;35.12;101431.41;10359333;28;20100;-76
2022/07/29 11:03:47;;;;;;;7.35;6.28;;;;;;;31.76;37.82;101435.53;10326491;28;20433;-76
2022/07/29 11:08:48;;;;;;;9.18;7.35;;;;;;;32.38;34.58;101438.00;10362143;28;20037;-76
2022/07/29 11:13:51;;;;;;;15.73;8.13;;;;;;;32.41;36.78;101437.03;10394219;28;20469;-75
2022/07/29 11:19:14;;;;;;;10.63;7.93;;;;;;;32.29;35.86;101439.19;10382705;28;20082;-76
2022/07/29 11:24:17;;;;;;;11.00;6.18;;;;;;;31.03;35.00;101440.38;10400257;28;20041;-76
2022/07/29 11:29:22;;;;;;;6.25;5.68;;;;;;;30.66;35.45;101432.47;10382178;28;20478;-76
2022/07/29 11:34:22;;;;;;;9.63;7.78;;;;;;;31.29;34.84;101438.75;10399665;28;20156;-76
2022/07/29 11:39:25;;;;;;;7.67;6.87;;;;;;;30.95;37.34;101436.16;10400566;28;20038;-76
2022/07/29 11:44:58;;;;;;;8.20;5.57;;;;;;;31.01;37.24;101436.84;10399685;28;20489;-76
2022/07/29 11:49:59;;;;;;;7.70;6.47;;;;;;;30.42;36.70;101432.16;10398851;28;20040;-77
2022/07/29 11:55:01;;;;;;;9.30;7.03;;;;;;;30.89;36.64;101430.00;10382229;28;20037;-76
2022/07/29 12:00:08;;;;;;;8.63;7.18;;;;;;;31.25;36.71;101430.78;10390802;28;20041;-77
2022/07/29 12:05:10;;;;;;;8.65;7.07;;;;;;;30.81;37.51;101420.31;10408281;28;20044;-76
2022/07/29 12:10:10;;;;;;;9.38;6.05;;;;;;;30.68;38.51;101419.81;10388066;28;20116;-76
2022/07/29 12:15:20;;;;;;;6.47;5.87;;;;;;;31.20;35.34;101430.91;10369390;28;20038;-76
2022/07/29 12:20:28;;;;;;;10.77;6.82;;;;;;;31.85;34.06;101423.50;10368755;28;20033;-74
2022/07/29 12:25:33;;;;;;;8.73;7.43;;;;;;;31.49;34.66;101435.44;10358272;28;20053;-74
2022/07/29 12:30:41;;;;;;;9.68;5.30;;;;;;;32.08;35.44;101425.47;10371928;28;20029;-75
2022/07/29 12:35:42;;;;;;;6.03;5.38;;;;;;;31.71;34.04;101423.03;10376245;28;20068;-75
2022/07/29 12:40:43;;;;;;;6.45;4.60;;;;;;;31.60;34.79;101426.09;10363244;28;20045;-77
2022/07/29 12:45:46;;;;;;;4.72;4.13;;;;;;;32.11;32.42;101427.16;10352488;28;20070;-77
2022/07/29 12:50:56;;;;;;;5.95;4.68;;;;;;;32.02;31.76;101424.75;10386098;28;20120;-77
2022/07/29 12:55:59;;;;;;;5.00;3.92;;;;;;;31.83;32.34;101428.09;10374056;28;20139;-77
2022/07/29 13:01:11;;;;;;;5.25;3.03;;;;;;;31.24;35.71;101429.03;10329981;28;20390;-78
2022/07/29 13:06:48;;;;;;;9.18;4.45;;;;;;;29.61;38.44;101423.34;10330234;28;20042;-77
2022/07/29 13:11:50;;;;;;;5.15;4.35;;;;;;;30.38;38.64;101415.16;10241795;28;20121;-78
2022/07/29 13:17:21;;;;;;;5.63;4.32;;;;;;;31.31;33.90;101419.78;10328675;28;20088;-78
2022/07/29 13:22:24;;;;;;;7.32;4.80;;;;;;;31.34;34.56;101423.28;10325882;28;20034;-78
2022/07/29 13:27:26;;;;;;;3.80;3.25;;;;;;;30.96;35.69;101417.19;10345304;28;20096;-78
2022/07/29 13:32:28;;;;;;;6.03;3.65;;;;;;;30.93;33.42;101411.00;10364248;28;20037;-78
2022/07/29 13:37:29;;;;;;;;;;;;;;;30.46;35.89;101407.72;10345727;28;20133;-77
2022/07/29 13:42:30;;;;;;;7.15;4.97;;;;;;;28.57;42.99;101412.88;10334704;28;20423;-77
2022/07/29 13:47:30;;;;;;;5.00;3.93;;;;;;;30.44;37.25;101395.22;10331157;28;20061;-77
2022/07/29 13:52:31;;;;;;;5.33;3.77;;;;;;;31.26;35.05;101400.13;10363219;28;20296;-77
2022/07/29 13:57:31;;;;;;;4.67;3.30;;;;;;;30.15;36.07;101408.53;10364489;28;20065;-77
2022/07/29 14:02:33;;;;;;;5.83;3.20;;;;;;;28.77;40.07;101406.25;10365127;28;20128;-77
2022/07/29 14:07:33;;;;;;;4.97;3.08;;;;;;;27.31;41.02;101407.69;10366037;28;20145;-77
2022/07/29 14:12:34;;;;;;;8.50;6.73;;;;;;;26.59;42.99;101405.81;10346757;28;20117;-77
2022/07/29 14:17:35;;;;;;;8.40;5.30;;;;;;;26.67;44.50;101400.38;10352143;28;20185;-77
2022/07/29 14:22:36;;;;;;;6.72;5.55;;;;;;;29.07;37.71;101400.25;10346556;28;20145;-77
2022/07/29 14:27:37;;;;;;;8.50;3.00;;;;;;;28.01;39.29;101406.69;10350580;28;20026;-77
2022/07/29 14:32:37;;;;;;;7.80;3.57;;;;;;;27.17;43.10;101399.81;10361322;28;20550;-77
2022/07/29 14:37:38;;;;;;;31.03;19.90;;;;;;;29.23;38.14;101396.28;10362754;28;20042;-77
2022/07/29 14:42:39;;;;;;;7.68;5.97;;;;;;;30.23;37.35;101391.25;10329238;28;20456;-77
2022/07/29 14:47:39;;;;;;;7.87;4.03;;;;;;;29.89;37.42;101396.56;10331559;28;20037;-78
2022/07/29 14:52:40;;;;;;;5.53;3.73;;;;;;;28.49;38.65;101395.97;10347199;28;20292;-78
2022/07/29 14:57:40;;;;;;;7.77;3.70;;;;;;;27.23;42.52;101392.56;10327806;28;20121;-77
2022/07/29 15:02:41;;;;;;;7.00;4.00;;;;;;;28.37;38.23;101383.63;10345164;28;20462;-77
2022/07/29 15:07:41;;;;;;;5.33;3.63;;;;;;;28.53;39.76;101389.63;10326993;28;20042;-77
2022/07/29 15:12:42;;;;;;;8.80;3.50;;;;;;;28.61;39.50;101388.59;10340607;28;20132;-78
2022/07/29 15:17:42;;;;;;;5.80;2.77;;;;;;;28.95;37.25;101391.50;10341543;28;20062;-77
2022/07/29 15:22:43;;;;;;;5.57;2.43;;;;;;;28.16;39.90;101394.78;10340649;28;20116;-77
2022/07/29 15:27:44;;;;;;;12.77;3.37;;;;;;;26.73;41.35;101389.59;10341142;28;20393;-77
2022/07/29 15:32:44;;;;;;;11.53;2.90;;;;;;;26.29;42.46;101396.31;10341412;28;20042;-77
2022/07/29 15:37:45;;;;;;;2.97;2.13;;;;;;;26.63;41.65;101390.59;10341767;28;20486;-77
2022/07/29 15:42:46;;;;;;;6.05;3.15;;;;;;;26.69;42.89;101390.53;10358340;28;20525;-78
2022/07/29 15:47:46;;;;;;;12.27;3.47;;;;;;;26.28;42.30;101390.03;10358907;28;20030;-77
2022/07/29 15:52:47;;;;;;;3.67;3.00;;;;;;;25.40;44.54;101396.91;10380672;28;20068;-77
2022/07/29 15:57:47;;;;;;;6.10;3.83;;;;;;;25.61;41.97;101392.34;10362068;28;20502;-76
2022/07/29 16:02:48;;;;;;;6.13;3.07;;;;;;;25.62;44.84;101402.16;10360293;28;20045;-77
2022/07/29 16:07:49;;;;;;;4.43;3.27;;;;;;;25.91;44.83;101401.06;10380575;28;20129;-78
2022/07/29 16:12:49;;;;;;;4.47;2.90;;;;;;;26.09;43.47;101395.53;10381441;28;20099;-77
2022/07/29 16:17:49;;;;;;;4.07;2.67;;;;;;;26.15;43.08;101405.38;10362431;28;20041;-77
2022/07/29 16:22:50;;;;;;;3.90;2.60;;;;;;;25.99;42.54;101396.53;10366124;28;20462;-77
2022/07/29 16:27:50;;;;;;;5.70;2.93;;;;;;;25.82;44.15;101393.09;10344968;28;20117;-77
2022/07/29 16:32:51;;;;;;;6.87;3.00;;;;;;;25.49;42.35;101401.34;10356498;28;20046;-77
2022/07/29 16:37:51;;;;;;;5.27;3.13;;;;;;;25.07;45.63;101401.53;10391633;28;20104;-77
2022/07/29 16:42:52;;;;;;;10.10;3.23;;;;;;;25.05;43.59;101382.81;10402355;28;20116;-77
2022/07/29 16:47:53;;;;;;;5.23;2.93;;;;;;;25.01;44.08;101391.75;10356319;28;20033;-77
2022/07/29 16:52:54;;;;;;;8.25;3.63;;;;;;;24.52;47.26;101394.53;10347085;28;20041;-76
2022/07/29 16:57:55;;;;;;;6.93;3.92;;;;;;;23.99;47.03;101392.78;10355838;28;20034;-76
2022/07/29 17:02:55;;;;;;;9.03;3.83;;;;;;;23.40;51.50;101403.34;10348208;28;20073;-76
2022/07/29 17:07:57;;;;;;;8.90;4.30;;;;;;;23.20;50.98;101399.69;10374250;28;20489;-76
2022/07/29 17:12:57;;;;;;;6.78;3.92;;;;;;;23.06;51.45;101396.97;10370124;28;20036;-76
2022/07/29 17:17:59;;;;;;;8.50;4.30;;;;;;;23.36;48.40;101392.69;10331334;28;20065;-76
2022/07/29 17:23:00;;;;;;;7.00;3.22;;;;;;;23.26;48.74;101395.31;10381306;28;20056;-76
2022/07/29 17:28:00;;;;;;;6.13;3.57;;;;;;;23.36;49.47;101392.69;10402442;28;20427;-77
2022/07/29 17:33:01;;;;;;;8.40;2.77;;;;;;;23.13;52.31;101405.00;10404173;28;20033;-76
2022/07/29 17:38:01;;;;;;;8.03;4.20;;;;;;;22.93;52.10;101406.69;10341373;28;20124;-76
2022/07/29 17:43:03;;;;;;;8.60;3.27;;;;;;;22.89;51.02;101413.81;10345275;28;20079;-77
2022/07/29 17:48:04;;;;;;;;;;;;;;;22.77;53.17;101417.28;10329811;28;20053;-77
2022/07/29 17:53:04;;;;;;;5.68;3.28;;;;;;;22.58;53.26;101417.19;10361775;28;19921;-77
2022/07/29 17:58:07;;;;;;;8.97;3.27;;;;;;;22.50;53.43;101426.03;10365879;28;20529;-77
2022/07/29 18:03:11;;;;;;;7.05;3.97;;;;;;;22.52;51.00;101425.13;10355617;28;20092;-77
2022/07/29 18:08:11;;;;;;;8.95;4.70;;;;;;;22.58;51.29;101426.97;10379336;28;20406;-77
2022/07/29 18:13:12;;;;;;;18.85;12.50;;;;;;;22.44;52.89;101425.09;10368685;28;20405;-76
2022/07/29 18:18:20;;;;;;;10.93;5.25;;;;;;;22.36;53.67;101424.13;10400780;28;20041;-77
2022/07/29 18:23:20;;;;;;;16.92;9.18;;;;;;;22.22;57.02;101432.00;10367313;28;20132;-77
2022/07/29 18:28:21;;;;;;;4.97;3.03;;;;;;;21.89;57.38;101435.25;10342020;28;20068;-77
2022/07/29 18:33:21;;;;;;;5.60;2.72;;;;;;;21.48;57.93;101439.22;10343034;28;20116;-76
2022/07/29 18:38:22;;;;;;;9.67;4.37;;;;;;;21.09;59.04;101436.97;10385342;28;20488;-77
2022/07/29 18:43:22;;;;;;;4.25;2.90;;;;;;;20.62;61.47;101440.72;10382930;28;20119;-77
2022/07/29 18:48:23;;;;;;;6.05;3.83;;;;;;;20.24;64.80;101446.31;10371605;28;20148;-77
2022/07/29 18:53:23;;;;;;;8.95;3.22;;;;;;;19.80;67.02;101449.94;10361632;28;20030;-77
2022/07/29 18:58:26;;;;;;;7.63;3.55;;;;;;;19.35;67.84;101459.69;10325382;28;20603;-76
2022/07/29 19:03:27;;;;;;;12.82;3.45;;;;;;;18.99;68.66;101466.88;10351050;28;20046;-77
2022/07/29 19:08:29;;;;;;;4.97;3.30;;;;;;;18.64;68.58;101472.22;10341218;28;20030;-76
2022/07/29 19:13:30;;;;;;;5.70;3.63;;;;;;;18.37;71.05;101467.13;10363969;28;20038;-76
2022/07/29 19:18:30;;;;;;;7.45;3.17;;;;;;;18.18;73.85;101466.69;10382283;28;20061;-76
2022/07/29 19:23:31;;;;;;;7.85;4.05;;;;;;;17.94;74.46;101475.72;10372715;28;20048;-75
2022/07/29 19:28:31;;;;;;;5.75;3.72;;;;;;;17.75;76.44;101482.25;10339098;28;20471;-77
2022/07/29 19:33:32;;;;;;;9.65;3.83;;;;;;;17.44;75.50;101481.38;10334805;28;20057;-76
2022/07/29 19:38:33;;;;;;;15.23;4.57;;;;;;;17.19;75.75;101495.63;10383190;28;20049;-76
2022/07/29 19:43:34;;;;;;;10.00;3.45;;;;;;;16.96;75.29;101509.00;10356208;28;20555;-77
2022/07/29 19:48:35;;;;;;;4.35;3.40;;;;;;;16.77;76.89;101508.44;10341027;28;20496;-77
2022/07/29 19:53:36;;;;;;;5.75;3.30;;;;;;;16.58;77.81;101517.47;10368699;28;20046;-76
2022/07/29 19:58:38;;;;;;;6.75;3.45;;;;;;;16.33;78.78;101527.22;10366321;28;20091;-77
2022/07/29 20:03:38;;;;;;;7.35;3.55;;;;;;;16.15;80.68;101530.13;10354778;28;20046;-76
2022/07/29 20:08:39;;;;;;;9.15;3.97;;;;;;;16.05;79.50;101536.81;10340922;28;20038;-76
2022/07/29 20:13:39;;;;;;;11.23;6.10;;;;;;;15.95;79.01;101534.69;10358661;28;20065;-77
2022/07/29 20:18:43;;;;;;;7.85;3.97;;;;;;;15.82;79.53;101544.75;10329284;28;20112;-76
2022/07/29 20:23:43;;;;;;;5.07;3.70;;;;;;;15.64;81.35;101546.72;10359172;28;20491;-77
2022/07/29 20:28:44;;;;;;;5.72;5.07;;;;;;;15.50;83.82;101552.34;10406346;28;20064;-77
2022/07/29 20:33:44;;;;;;;6.40;4.32;;;;;;;15.39;85.19;101562.50;10380013;28;20042;-77
2022/07/29 20:38:45;;;;;;;8.70;4.82;;;;;;;15.30;85.14;101564.78;10363828;28;20034;-77
2022/07/29 20:43:47;;;;;;;7.07;3.90;;;;;;;15.19;84.41;101563.47;10376762;28;20438;-77
2022/07/29 20:48:47;;;;;;;7.03;3.78;;;;;;;15.13;83.41;101566.72;10332681;28;20394;-77
2022/07/29 20:53:48;;;;;;;9.30;5.20;;;;;;;15.10;83.13;101567.53;10348159;28;20069;-77
2022/07/29 20:58:48;;;;;;;13.45;5.80;;;;;;;15.01;83.00;101574.16;10364445;28;20057;-77
2022/07/29 21:03:49;;;;;;;5.60;3.63;;;;;;;14.94;83.50;101571.25;10373607;28;20056;-77
2022/07/29 21:08:50;;;;;;;10.95;4.82;;;;;;;14.88;83.63;101583.31;10405824;28;20030;-76
2022/07/29 21:13:51;;;;;;;6.82;4.15;;;;;;;14.88;83.11;101586.81;10359742;28;20129;-76
2022/07/29 21:18:51;;;;;;;7.35;4.53;;;;;;;14.86;85.16;101592.88;10346533;28;20057;-76
2022/07/29 21:23:52;;;;;;;5.63;4.28;;;;;;;14.70;87.05;101588.69;10394629;28;20128;-76
2022/07/29 21:28:53;;;;;;;6.95;4.32;;;;;;;14.54;88.59;101599.44;10368863;28;20065;-76
2022/07/29 21:33:53;;;;;;;6.57;4.00;;;;;;;14.36;88.93;101594.28;10361812;28;20066;-76
2022/07/29 21:38:54;;;;;;;6.75;4.45;;;;;;;14.29;89.97;101594.84;10404318;28;20053;-76
2022/07/29 21:43:54;;;;;;;8.80;4.90;;;;;;;14.27;90.47;101593.88;10369916;28;20405;-76
2022/07/29 21:48:55;;;;;;;6.80;4.78;;;;;;;14.35;92.14;101599.50;10362672;28;20038;-76
2022/07/29 21:53:55;;;;;;;6.40;4.45;;;;;;;14.32;91.52;101594.97;10394635;28;20498;-76
2022/07/29 21:58:56;;;;;;;6.30;4.15;;;;;;;14.30;91.46;101596.63;10404082;28;20041;-75
2022/07/29 22:03:56;;;;;;;5.45;4.28;;;;;;;14.32;91.14;101589.69;10369550;28;20056;-76
2022/07/29 22:08:57;;;;;;;18.33;5.88;;;;;;;14.33;90.17;101583.59;10327640;28;20104;-76
2022/07/29 22:14:00;;;;;;;6.88;4.53;;;;;;;14.36;90.30;101578.47;10376958;28;20037;-76
2022/07/29 22:19:02;;;;;;;10.60;4.65;;;;;;;14.27;90.32;101575.44;10369130;28;20128;-76
2022/07/29 22:24:03;;;;;;;5.22;4.40;;;;;;;14.23;91.41;101573.50;10335979;28;20048;-76
2022/07/29 22:29:03;;;;;;;7.68;5.28;;;;;;;14.19;91.81;101576.84;10338106;28;20517;-76
2022/07/29 22:34:10;;;;;;;6.13;5.10;;;;;;;14.16;91.73;101569.72;10393781;28;20037;-76
2022/07/29 22:39:11;;;;;;;6.22;5.50;;;;;;;14.10;91.67;101564.19;10348634;28;20038;-76
2022/07/29 22:44:11;;;;;;;6.75;4.85;;;;;;;14.05;92.22;101574.50;10343011;28;20058;-76
2022/07/29 22:49:11;;;;;;;6.78;4.53;;;;;;;14.04;92.49;101577.06;10378364;28;20056;-76
2022/07/29 22:54:12;;;;;;;9.82;5.57;;;;;;;14.00;92.61;101573.38;10383533;28;20037;-76
2022/07/29 22:59:13;;;;;;;9.30;6.55;;;;;;;13.95;92.33;101583.72;10346772;28;20069;-76
2022/07/29 23:04:13;;;;;;;9.77;5.90;;;;;;;13.92;91.46;101580.03;10360831;28;20087;-76
2022/07/29 23:09:14;;;;;;;9.55;6.13;;;;;;;13.90;91.54;101572.09;10394921;28;20386;-76
2022/07/29 23:14:14;;;;;;;8.05;6.40;;;;;;;13.88;91.60;101575.47;10383088;28;20053;-75
2022/07/29 23:19:15;;;;;;;10.50;6.82;;;;;;;13.87;92.41;101571.03;10347316;28;20149;-75
2022/07/29 23:24:15;;;;;;;7.80;5.88;;;;;;;13.83;92.68;101572.63;10326218;28;20120;-76